sensor_id;sensor_type;location;lat;lon;timestamp;P1;durP1;ratioP1;P2;durP2;ratioP2
12088;SDS011;6107;49.078;8.578;2023-04-29T00:00:10;8.47;;;3.80;;
12088;SDS011;6107;49.078;8.578;2023-04-29T00:02:36;5.20;;;3.97;;
12088;SDS011;6107;49.078;8.578;2023-04-29T00:05:02;5.83;;;3.90;;
12088;SDS011;6107;49.078;8.578;2023-04-29T00:07:29;5.17;;;4.10;;
12088;SDS011;6107;49.078;8.578;2023-04-29T00:09:56;4.53;;;4.00;;
12088;SDS011;6107;49.078;8.578;2023-04-29T00:12:22;6.27;;;3.67;;
12088;SDS011;6107;49.078;8.578;2023-04-29T00:14:47;4.87;;;3.50;;
12088;SDS011;6107;49.078;8.578;2023-04-29T00:17:13;5.20;;;4.37;;
12088;SDS011;6107;49.078;8.578;2023-04-29T00:19:38;8.27;;;4.43;;
12088;SDS011;6107;49.078;8.578;2023-04-29T00:22:05;5.07;;;4.30;;
12088;SDS011;6107;49.078;8.578;2023-04-29T00:24:30;5.90;;;4.30;;
12088;SDS011;6107;49.078;8.578;2023-04-29T00:26:56;8.20;;;3.90;;
12088;SDS011;6107;49.078;8.578;2023-04-29T00:29:21;6.93;;;3.93;;
12088;SDS011;6107;49.078;8.578;2023-04-29T00:31:47;5.07;;;3.73;;
12088;SDS011;6107;49.078;8.578;2023-04-29T00:34:13;6.13;;;3.60;;
12088;SDS011;6107;49.078;8.578;2023-04-29T00:36:38;5.43;;;3.80;;
12088;SDS011;6107;49.078;8.578;2023-04-29T00:39:04;3.90;;;3.50;;
12088;SDS011;6107;49.078;8.578;2023-04-29T00:41:30;10.93;;;3.80;;
12088;SDS011;6107;49.078;8.578;2023-04-29T00:43:56;5.47;;;3.20;;
12088;SDS011;6107;49.078;8.578;2023-04-29T00:46:22;9.80;;;3.40;;
12088;SDS011;6107;49.078;8.578;2023-04-29T00:48:47;22.33;;;3.73;;
12088;SDS011;6107;49.078;8.578;2023-04-29T00:51:13;29.60;;;4.43;;
12088;SDS011;6107;49.078;8.578;2023-04-29T00:53:41;5.80;;;4.03;;
12088;SDS011;6107;49.078;8.578;2023-04-29T00:56:06;5.80;;;4.20;;
12088;SDS011;6107;49.078;8.578;2023-04-29T00:58:32;4.80;;;4.20;;
12088;SDS011;6107;49.078;8.578;2023-04-29T01:00:59;6.83;;;3.83;;
12088;SDS011;6107;49.078;8.578;2023-04-29T01:03:25;4.83;;;4.23;;
12088;SDS011;6107;49.078;8.578;2023-04-29T01:06:08;10.87;;;4.47;;
12088;SDS011;6107;49.078;8.578;2023-04-29T01:11:44;6.63;;;4.17;;
12088;SDS011;6107;49.078;8.578;2023-04-29T01:14:30;9.70;;;4.43;;
12088;SDS011;6107;49.078;8.578;2023-04-29T01:17:04;5.90;;;4.10;;
12088;SDS011;6107;49.078;8.578;2023-04-29T01:19:38;15.03;;;4.70;;
12088;SDS011;6107;49.078;8.578;2023-04-29T01:22:12;4.60;;;4.07;;
12088;SDS011;6107;49.078;8.578;2023-04-29T01:24:38;6.50;;;4.27;;
12088;SDS011;6107;49.078;8.578;2023-04-29T01:33:02;5.10;;;4.00;;
12088;SDS011;6107;49.078;8.578;2023-04-29T01:35:40;9.23;;;3.90;;
12088;SDS011;6107;49.078;8.578;2023-04-29T01:43:39;4.67;;;3.93;;
12088;SDS011;6107;49.078;8.578;2023-04-29T01:46:05;6.20;;;4.47;;
12088;SDS011;6107;49.078;8.578;2023-04-29T01:48:34;6.97;;;4.63;;
12088;SDS011;6107;49.078;8.578;2023-04-29T01:51:01;7.30;;;5.00;;
12088;SDS011;6107;49.078;8.578;2023-04-29T01:53:26;8.50;;;5.43;;
12088;SDS011;6107;49.078;8.578;2023-04-29T01:55:52;6.40;;;5.07;;
12088;SDS011;6107;49.078;8.578;2023-04-29T01:58:17;6.50;;;5.53;;
12088;SDS011;6107;49.078;8.578;2023-04-29T02:00:43;9.83;;;5.33;;
12088;SDS011;6107;49.078;8.578;2023-04-29T02:03:08;6.87;;;5.33;;
12088;SDS011;6107;49.078;8.578;2023-04-29T02:05:34;8.93;;;5.43;;
12088;SDS011;6107;49.078;8.578;2023-04-29T02:08:00;7.23;;;5.83;;
12088;SDS011;6107;49.078;8.578;2023-04-29T02:10:26;7.10;;;5.03;;
12088;SDS011;6107;49.078;8.578;2023-04-29T02:12:52;7.90;;;5.37;;
12088;SDS011;6107;49.078;8.578;2023-04-29T02:15:18;7.37;;;5.40;;
12088;SDS011;6107;49.078;8.578;2023-04-29T02:17:43;7.97;;;5.87;;
12088;SDS011;6107;49.078;8.578;2023-04-29T02:20:09;12.07;;;5.77;;
12088;SDS011;6107;49.078;8.578;2023-04-29T02:22:35;7.40;;;5.57;;
12088;SDS011;6107;49.078;8.578;2023-04-29T02:25:00;7.37;;;5.43;;
12088;SDS011;6107;49.078;8.578;2023-04-29T02:27:26;8.63;;;5.37;;
12088;SDS011;6107;49.078;8.578;2023-04-29T02:29:52;8.03;;;5.40;;
12088;SDS011;6107;49.078;8.578;2023-04-29T02:32:17;6.70;;;5.40;;
12088;SDS011;6107;49.078;8.578;2023-04-29T02:34:44;8.57;;;5.63;;
12088;SDS011;6107;49.078;8.578;2023-04-29T02:37:10;9.97;;;6.37;;
12088;SDS011;6107;49.078;8.578;2023-04-29T02:39:35;10.07;;;6.73;;
12088;SDS011;6107;49.078;8.578;2023-04-29T02:42:01;7.30;;;6.23;;
12088;SDS011;6107;49.078;8.578;2023-04-29T02:44:27;7.13;;;5.47;;
12088;SDS011;6107;49.078;8.578;2023-04-29T02:46:53;10.57;;;5.93;;
12088;SDS011;6107;49.078;8.578;2023-04-29T02:49:18;8.10;;;6.20;;
12088;SDS011;6107;49.078;8.578;2023-04-29T02:51:44;8.53;;;6.27;;
12088;SDS011;6107;49.078;8.578;2023-04-29T02:54:09;7.87;;;6.07;;
12088;SDS011;6107;49.078;8.578;2023-04-29T02:56:35;9.30;;;6.20;;
12088;SDS011;6107;49.078;8.578;2023-04-29T02:59:01;7.03;;;6.07;;
12088;SDS011;6107;49.078;8.578;2023-04-29T03:01:27;6.87;;;5.20;;
12088;SDS011;6107;49.078;8.578;2023-04-29T03:03:53;7.30;;;6.20;;
12088;SDS011;6107;49.078;8.578;2023-04-29T03:06:18;9.17;;;6.33;;
12088;SDS011;6107;49.078;8.578;2023-04-29T03:08:44;7.57;;;6.00;;
12088;SDS011;6107;49.078;8.578;2023-04-29T03:11:10;7.20;;;5.97;;
12088;SDS011;6107;49.078;8.578;2023-04-29T03:13:36;10.80;;;6.07;;
12088;SDS011;6107;49.078;8.578;2023-04-29T03:16:02;8.80;;;6.23;;
12088;SDS011;6107;49.078;8.578;2023-04-29T03:18:28;8.57;;;6.40;;
12088;SDS011;6107;49.078;8.578;2023-04-29T03:20:53;9.17;;;6.77;;
12088;SDS011;6107;49.078;8.578;2023-04-29T03:23:19;7.70;;;6.30;;
12088;SDS011;6107;49.078;8.578;2023-04-29T03:25:44;8.70;;;6.23;;
12088;SDS011;6107;49.078;8.578;2023-04-29T03:28:10;9.23;;;5.97;;
12088;SDS011;6107;49.078;8.578;2023-04-29T03:30:35;10.37;;;6.00;;
12088;SDS011;6107;49.078;8.578;2023-04-29T03:33:01;7.17;;;5.70;;
12088;SDS011;6107;49.078;8.578;2023-04-29T03:35:26;8.50;;;5.07;;
12088;SDS011;6107;49.078;8.578;2023-04-29T03:37:52;6.83;;;5.03;;
12088;SDS011;6107;49.078;8.578;2023-04-29T03:40:17;6.07;;;5.20;;
12088;SDS011;6107;49.078;8.578;2023-04-29T03:42:43;6.77;;;5.13;;
12088;SDS011;6107;49.078;8.578;2023-04-29T03:45:09;6.53;;;4.60;;
12088;SDS011;6107;49.078;8.578;2023-04-29T03:47:37;6.17;;;4.50;;
12088;SDS011;6107;49.078;8.578;2023-04-29T03:50:02;6.70;;;4.60;;
12088;SDS011;6107;49.078;8.578;2023-04-29T03:52:28;6.00;;;4.60;;
12088;SDS011;6107;49.078;8.578;2023-04-29T03:54:54;7.67;;;4.33;;
12088;SDS011;6107;49.078;8.578;2023-04-29T03:57:19;5.50;;;4.43;;
12088;SDS011;6107;49.078;8.578;2023-04-29T03:59:45;5.97;;;3.93;;
12088;SDS011;6107;49.078;8.578;2023-04-29T04:02:14;5.30;;;4.10;;
12088;SDS011;6107;49.078;8.578;2023-04-29T04:04:40;4.37;;;3.90;;
12088;SDS011;6107;49.078;8.578;2023-04-29T04:07:06;5.17;;;3.90;;
12088;SDS011;6107;49.078;8.578;2023-04-29T04:09:31;6.67;;;3.93;;
12088;SDS011;6107;49.078;8.578;2023-04-29T04:11:57;4.23;;;3.73;;
12088;SDS011;6107;49.078;8.578;2023-04-29T04:14:23;5.70;;;3.50;;
12088;SDS011;6107;49.078;8.578;2023-04-29T04:16:48;6.87;;;4.00;;
12088;SDS011;6107;49.078;8.578;2023-04-29T04:19:14;6.03;;;3.93;;
12088;SDS011;6107;49.078;8.578;2023-04-29T04:21:40;5.43;;;3.90;;
12088;SDS011;6107;49.078;8.578;2023-04-29T04:24:06;6.23;;;4.07;;
12088;SDS011;6107;49.078;8.578;2023-04-29T04:26:32;4.60;;;3.50;;
12088;SDS011;6107;49.078;8.578;2023-04-29T04:28:57;4.37;;;3.63;;
12088;SDS011;6107;49.078;8.578;2023-04-29T04:31:23;4.40;;;3.77;;
12088;SDS011;6107;49.078;8.578;2023-04-29T04:33:49;8.27;;;3.97;;
12088;SDS011;6107;49.078;8.578;2023-04-29T04:36:15;5.43;;;3.77;;
12088;SDS011;6107;49.078;8.578;2023-04-29T04:38:40;5.87;;;3.80;;
12088;SDS011;6107;49.078;8.578;2023-04-29T04:41:06;5.70;;;3.60;;
12088;SDS011;6107;49.078;8.578;2023-04-29T04:43:34;5.03;;;4.20;;
12088;SDS011;6107;49.078;8.578;2023-04-29T04:46:00;4.93;;;3.50;;
12088;SDS011;6107;49.078;8.578;2023-04-29T04:48:34;5.10;;;3.40;;
12088;SDS011;6107;49.078;8.578;2023-04-29T04:51:06;4.13;;;3.40;;
12088;SDS011;6107;49.078;8.578;2023-04-29T04:53:32;5.50;;;3.67;;
12088;SDS011;6107;49.078;8.578;2023-04-29T04:56:01;6.57;;;3.60;;
12088;SDS011;6107;49.078;8.578;2023-04-29T04:58:27;6.07;;;3.73;;
12088;SDS011;6107;49.078;8.578;2023-04-29T05:00:55;6.70;;;4.60;;
12088;SDS011;6107;49.078;8.578;2023-04-29T05:03:20;6.47;;;3.90;;
12088;SDS011;6107;49.078;8.578;2023-04-29T05:05:51;4.20;;;3.70;;
12088;SDS011;6107;49.078;8.578;2023-04-29T05:08:26;5.23;;;4.47;;
12088;SDS011;6107;49.078;8.578;2023-04-29T05:10:51;5.37;;;4.10;;
12088;SDS011;6107;49.078;8.578;2023-04-29T05:13:17;5.30;;;3.80;;
12088;SDS011;6107;49.078;8.578;2023-04-29T05:15:43;4.47;;;3.57;;
12088;SDS011;6107;49.078;8.578;2023-04-29T05:18:09;6.10;;;4.10;;
12088;SDS011;6107;49.078;8.578;2023-04-29T05:20:35;5.97;;;3.47;;
12088;SDS011;6107;49.078;8.578;2023-04-29T05:23:02;4.30;;;3.50;;
12088;SDS011;6107;49.078;8.578;2023-04-29T05:25:28;5.37;;;3.47;;
12088;SDS011;6107;49.078;8.578;2023-04-29T05:27:53;6.87;;;4.17;;
12088;SDS011;6107;49.078;8.578;2023-04-29T05:30:19;5.70;;;3.83;;
12088;SDS011;6107;49.078;8.578;2023-04-29T05:32:45;4.47;;;3.70;;
12088;SDS011;6107;49.078;8.578;2023-04-29T05:35:11;4.40;;;3.30;;
12088;SDS011;6107;49.078;8.578;2023-04-29T05:37:36;4.63;;;3.73;;
12088;SDS011;6107;49.078;8.578;2023-04-29T05:40:02;3.90;;;3.23;;
12088;SDS011;6107;49.078;8.578;2023-04-29T05:42:28;4.90;;;3.20;;
12088;SDS011;6107;49.078;8.578;2023-04-29T05:44:54;5.60;;;3.43;;
12088;SDS011;6107;49.078;8.578;2023-04-29T05:47:20;7.27;;;3.67;;
12088;SDS011;6107;49.078;8.578;2023-04-29T05:49:45;7.83;;;2.97;;
12088;SDS011;6107;49.078;8.578;2023-04-29T05:52:11;5.03;;;3.40;;
12088;SDS011;6107;49.078;8.578;2023-04-29T05:54:36;4.40;;;3.17;;
12088;SDS011;6107;49.078;8.578;2023-04-29T05:57:02;4.77;;;3.33;;
12088;SDS011;6107;49.078;8.578;2023-04-29T05:59:28;4.60;;;3.17;;
12088;SDS011;6107;49.078;8.578;2023-04-29T06:01:58;7.23;;;3.63;;
12088;SDS011;6107;49.078;8.578;2023-04-29T06:04:24;4.77;;;3.43;;
12088;SDS011;6107;49.078;8.578;2023-04-29T06:06:54;5.43;;;3.50;;
12088;SDS011;6107;49.078;8.578;2023-04-29T06:09:21;4.33;;;3.30;;
12088;SDS011;6107;49.078;8.578;2023-04-29T06:11:49;3.50;;;3.20;;
12088;SDS011;6107;49.078;8.578;2023-04-29T06:14:15;3.97;;;2.87;;
12088;SDS011;6107;49.078;8.578;2023-04-29T06:16:40;4.33;;;3.37;;
12088;SDS011;6107;49.078;8.578;2023-04-29T06:19:06;3.93;;;3.10;;
12088;SDS011;6107;49.078;8.578;2023-04-29T06:21:31;4.13;;;2.90;;
12088;SDS011;6107;49.078;8.578;2023-04-29T06:23:57;6.13;;;3.33;;
12088;SDS011;6107;49.078;8.578;2023-04-29T06:26:23;2.97;;;2.57;;
12088;SDS011;6107;49.078;8.578;2023-04-29T06:28:48;3.60;;;2.90;;
12088;SDS011;6107;49.078;8.578;2023-04-29T06:31:14;4.60;;;3.17;;
12088;SDS011;6107;49.078;8.578;2023-04-29T06:33:40;3.37;;;3.00;;
12088;SDS011;6107;49.078;8.578;2023-04-29T06:36:05;4.20;;;3.03;;
12088;SDS011;6107;49.078;8.578;2023-04-29T06:38:31;3.53;;;3.00;;
12088;SDS011;6107;49.078;8.578;2023-04-29T06:40:57;4.23;;;2.97;;
12088;SDS011;6107;49.078;8.578;2023-04-29T06:43:25;5.83;;;3.30;;
12088;SDS011;6107;49.078;8.578;2023-04-29T06:45:51;4.30;;;3.00;;
12088;SDS011;6107;49.078;8.578;2023-04-29T06:48:16;3.37;;;2.97;;
12088;SDS011;6107;49.078;8.578;2023-04-29T06:50:55;5.27;;;3.07;;
12088;SDS011;6107;49.078;8.578;2023-04-29T06:53:22;3.50;;;2.87;;
12088;SDS011;6107;49.078;8.578;2023-04-29T06:55:48;4.77;;;3.07;;
12088;SDS011;6107;49.078;8.578;2023-04-29T06:58:14;6.90;;;3.90;;
12088;SDS011;6107;49.078;8.578;2023-04-29T07:00:42;5.90;;;3.50;;
12088;SDS011;6107;49.078;8.578;2023-04-29T07:03:09;6.27;;;3.10;;
12088;SDS011;6107;49.078;8.578;2023-04-29T07:05:35;6.93;;;2.80;;
12088;SDS011;6107;49.078;8.578;2023-04-29T07:08:01;4.47;;;3.27;;
12088;SDS011;6107;49.078;8.578;2023-04-29T07:10:27;7.43;;;3.40;;
12088;SDS011;6107;49.078;8.578;2023-04-29T07:12:53;4.53;;;3.23;;
12088;SDS011;6107;49.078;8.578;2023-04-29T07:15:19;6.03;;;3.10;;
12088;SDS011;6107;49.078;8.578;2023-04-29T07:17:44;6.57;;;4.13;;
12088;SDS011;6107;49.078;8.578;2023-04-29T07:20:10;4.70;;;3.60;;
12088;SDS011;6107;49.078;8.578;2023-04-29T07:22:36;5.37;;;3.30;;
12088;SDS011;6107;49.078;8.578;2023-04-29T07:25:01;5.63;;;3.63;;
12088;SDS011;6107;49.078;8.578;2023-04-29T07:27:27;4.07;;;3.07;;
12088;SDS011;6107;49.078;8.578;2023-04-29T07:29:53;4.97;;;3.27;;
12088;SDS011;6107;49.078;8.578;2023-04-29T07:32:19;4.83;;;3.00;;
12088;SDS011;6107;49.078;8.578;2023-04-29T07:34:44;4.07;;;3.03;;
12088;SDS011;6107;49.078;8.578;2023-04-29T07:37:11;4.20;;;3.00;;
12088;SDS011;6107;49.078;8.578;2023-04-29T07:39:37;4.63;;;3.30;;
12088;SDS011;6107;49.078;8.578;2023-04-29T07:42:03;4.93;;;3.67;;
12088;SDS011;6107;49.078;8.578;2023-04-29T07:44:29;4.60;;;3.20;;
12088;SDS011;6107;49.078;8.578;2023-04-29T07:46:54;4.33;;;3.70;;
12088;SDS011;6107;49.078;8.578;2023-04-29T07:49:19;4.30;;;3.10;;
12088;SDS011;6107;49.078;8.578;2023-04-29T07:51:45;4.23;;;3.40;;
12088;SDS011;6107;49.078;8.578;2023-04-29T07:54:10;4.07;;;3.47;;
12088;SDS011;6107;49.078;8.578;2023-04-29T07:56:36;5.27;;;3.20;;
12088;SDS011;6107;49.078;8.578;2023-04-29T07:59:01;5.20;;;3.60;;
12088;SDS011;6107;49.078;8.578;2023-04-29T08:01:27;4.47;;;3.47;;
12088;SDS011;6107;49.078;8.578;2023-04-29T08:03:53;4.50;;;3.50;;
12088;SDS011;6107;49.078;8.578;2023-04-29T08:06:19;6.93;;;3.57;;
12088;SDS011;6107;49.078;8.578;2023-04-29T08:08:46;4.77;;;3.40;;
12088;SDS011;6107;49.078;8.578;2023-04-29T08:11:16;5.00;;;3.80;;
12088;SDS011;6107;49.078;8.578;2023-04-29T08:13:45;4.83;;;2.93;;
12088;SDS011;6107;49.078;8.578;2023-04-29T08:16:11;4.77;;;3.87;;
12088;SDS011;6107;49.078;8.578;2023-04-29T08:18:37;6.80;;;4.57;;
12088;SDS011;6107;49.078;8.578;2023-04-29T08:21:03;7.27;;;4.30;;
12088;SDS011;6107;49.078;8.578;2023-04-29T08:23:29;5.40;;;3.80;;
12088;SDS011;6107;49.078;8.578;2023-04-29T08:25:54;5.10;;;3.40;;
12088;SDS011;6107;49.078;8.578;2023-04-29T08:28:20;5.40;;;3.80;;
12088;SDS011;6107;49.078;8.578;2023-04-29T08:30:46;4.57;;;3.20;;
12088;SDS011;6107;49.078;8.578;2023-04-29T08:33:12;5.33;;;3.77;;
12088;SDS011;6107;49.078;8.578;2023-04-29T08:35:38;4.87;;;3.67;;
12088;SDS011;6107;49.078;8.578;2023-04-29T08:38:04;5.10;;;3.63;;
12088;SDS011;6107;49.078;8.578;2023-04-29T08:40:34;5.53;;;3.87;;
12088;SDS011;6107;49.078;8.578;2023-04-29T08:43:06;5.80;;;3.53;;
12088;SDS011;6107;49.078;8.578;2023-04-29T08:45:33;4.63;;;3.63;;
12088;SDS011;6107;49.078;8.578;2023-04-29T08:48:03;6.43;;;3.60;;
12088;SDS011;6107;49.078;8.578;2023-04-29T08:50:30;5.80;;;3.50;;
12088;SDS011;6107;49.078;8.578;2023-04-29T08:53:01;3.83;;;3.17;;
12088;SDS011;6107;49.078;8.578;2023-04-29T08:55:27;4.17;;;3.47;;
12088;SDS011;6107;49.078;8.578;2023-04-29T08:57:53;5.60;;;3.23;;
12088;SDS011;6107;49.078;8.578;2023-04-29T09:00:20;5.17;;;3.63;;
12088;SDS011;6107;49.078;8.578;2023-04-29T09:02:51;5.57;;;3.17;;
12088;SDS011;6107;49.078;8.578;2023-04-29T09:05:19;4.37;;;3.10;;
12088;SDS011;6107;49.078;8.578;2023-04-29T09:07:45;7.20;;;3.20;;
12088;SDS011;6107;49.078;8.578;2023-04-29T09:10:12;3.77;;;3.03;;
12088;SDS011;6107;49.078;8.578;2023-04-29T09:12:38;4.63;;;3.53;;
12088;SDS011;6107;49.078;8.578;2023-04-29T09:15:04;4.47;;;2.97;;
12088;SDS011;6107;49.078;8.578;2023-04-29T09:17:43;5.13;;;3.50;;
12088;SDS011;6107;49.078;8.578;2023-04-29T09:22:48;4.70;;;3.83;;
12088;SDS011;6107;49.078;8.578;2023-04-29T09:25:15;5.97;;;3.43;;
12088;SDS011;6107;49.078;8.578;2023-04-29T09:27:40;4.60;;;3.50;;
12088;SDS011;6107;49.078;8.578;2023-04-29T09:30:07;3.97;;;3.03;;
12088;SDS011;6107;49.078;8.578;2023-04-29T09:32:33;4.97;;;3.60;;
12088;SDS011;6107;49.078;8.578;2023-04-29T09:35:18;4.63;;;3.60;;
12088;SDS011;6107;49.078;8.578;2023-04-29T09:37:48;5.60;;;3.57;;
12088;SDS011;6107;49.078;8.578;2023-04-29T09:40:29;5.72;;;3.40;;
12088;SDS011;6107;49.078;8.578;2023-04-29T09:42:56;5.18;;;3.58;;
12088;SDS011;6107;49.078;8.578;2023-04-29T09:45:35;10.53;;;4.33;;
12088;SDS011;6107;49.078;8.578;2023-04-29T09:48:02;10.63;;;7.88;;
12088;SDS011;6107;49.078;8.578;2023-04-29T09:50:29;12.87;;;9.20;;
12088;SDS011;6107;49.078;8.578;2023-04-29T09:52:55;13.38;;;9.30;;
12088;SDS011;6107;49.078;8.578;2023-04-29T09:55:21;15.57;;;9.90;;
12088;SDS011;6107;49.078;8.578;2023-04-29T09:57:47;18.47;;;10.83;;
12088;SDS011;6107;49.078;8.578;2023-04-29T10:00:12;14.43;;;9.23;;
12088;SDS011;6107;49.078;8.578;2023-04-29T10:02:40;18.07;;;10.37;;
12088;SDS011;6107;49.078;8.578;2023-04-29T10:05:07;20.63;;;10.47;;
12088;SDS011;6107;49.078;8.578;2023-04-29T10:07:34;15.90;;;10.77;;
12088;SDS011;6107;49.078;8.578;2023-04-29T10:10:03;19.10;;;10.10;;
12088;SDS011;6107;49.078;8.578;2023-04-29T10:12:29;20.67;;;11.50;;
12088;SDS011;6107;49.078;8.578;2023-04-29T10:18:15;28.07;;;10.43;;
12088;SDS011;6107;49.078;8.578;2023-04-29T10:20:45;17.00;;;10.30;;
12088;SDS011;6107;49.078;8.578;2023-04-29T10:23:11;15.43;;;9.37;;
12088;SDS011;6107;49.078;8.578;2023-04-29T10:25:38;15.17;;;10.03;;
12088;SDS011;6107;49.078;8.578;2023-04-29T10:28:06;16.37;;;10.70;;
12088;SDS011;6107;49.078;8.578;2023-04-29T10:30:37;15.50;;;10.37;;
12088;SDS011;6107;49.078;8.578;2023-04-29T10:33:03;14.87;;;9.00;;
12088;SDS011;6107;49.078;8.578;2023-04-29T10:35:30;17.30;;;11.17;;
12088;SDS011;6107;49.078;8.578;2023-04-29T10:37:56;17.57;;;10.13;;
12088;SDS011;6107;49.078;8.578;2023-04-29T10:40:30;13.27;;;9.00;;
12088;SDS011;6107;49.078;8.578;2023-04-29T10:43:10;18.00;;;9.93;;
12088;SDS011;6107;49.078;8.578;2023-04-29T10:45:36;14.07;;;9.43;;
12088;SDS011;6107;49.078;8.578;2023-04-29T10:51:16;15.27;;;9.63;;
12088;SDS011;6107;49.078;8.578;2023-04-29T10:53:19;16.57;;;9.37;;
12088;SDS011;6107;49.078;8.578;2023-04-29T10:55:49;13.90;;;8.50;;
12088;SDS011;6107;49.078;8.578;2023-04-29T10:58:32;12.47;;;8.43;;
12088;SDS011;6107;49.078;8.578;2023-04-29T11:00:58;12.40;;;8.60;;
12088;SDS011;6107;49.078;8.578;2023-04-29T11:06:12;12.30;;;8.10;;
12088;SDS011;6107;49.078;8.578;2023-04-29T11:08:39;12.90;;;8.13;;
12088;SDS011;6107;49.078;8.578;2023-04-29T11:11:04;14.10;;;8.57;;
12088;SDS011;6107;49.078;8.578;2023-04-29T11:13:36;11.60;;;7.50;;
12088;SDS011;6107;49.078;8.578;2023-04-29T11:16:07;12.67;;;8.80;;
12088;SDS011;6107;49.078;8.578;2023-04-29T11:18:34;11.57;;;8.03;;
12088;SDS011;6107;49.078;8.578;2023-04-29T11:23:35;12.67;;;7.60;;
12088;SDS011;6107;49.078;8.578;2023-04-29T11:26:02;10.30;;;7.40;;
12088;SDS011;6107;49.078;8.578;2023-04-29T11:28:29;9.53;;;7.27;;
12088;SDS011;6107;49.078;8.578;2023-04-29T11:30:55;10.53;;;7.17;;
12088;SDS011;6107;49.078;8.578;2023-04-29T11:33:22;11.43;;;7.90;;
12088;SDS011;6107;49.078;8.578;2023-04-29T11:35:48;13.17;;;8.13;;
12088;SDS011;6107;49.078;8.578;2023-04-29T11:38:13;10.67;;;7.53;;
12088;SDS011;6107;49.078;8.578;2023-04-29T11:40:48;9.43;;;6.90;;
12088;SDS011;6107;49.078;8.578;2023-04-29T11:43:17;9.33;;;6.77;;
12088;SDS011;6107;49.078;8.578;2023-04-29T11:45:44;9.10;;;6.07;;
12088;SDS011;6107;49.078;8.578;2023-04-29T11:48:16;12.70;;;7.13;;
12088;SDS011;6107;49.078;8.578;2023-04-29T11:50:56;12.00;;;7.03;;
12088;SDS011;6107;49.078;8.578;2023-04-29T11:53:24;10.10;;;6.03;;
12088;SDS011;6107;49.078;8.578;2023-04-29T11:55:51;9.27;;;6.83;;
12088;SDS011;6107;49.078;8.578;2023-04-29T11:58:19;11.13;;;7.07;;
12088;SDS011;6107;49.078;8.578;2023-04-29T12:00:48;10.53;;;6.80;;
12088;SDS011;6107;49.078;8.578;2023-04-29T12:03:15;8.90;;;5.83;;
12088;SDS011;6107;49.078;8.578;2023-04-29T12:08:23;11.65;;;6.68;;
12088;SDS011;6107;49.078;8.578;2023-04-29T12:10:50;8.07;;;5.00;;
12088;SDS011;6107;49.078;8.578;2023-04-29T12:13:17;9.45;;;5.68;;
12088;SDS011;6107;49.078;8.578;2023-04-29T12:15:43;9.95;;;5.72;;
12088;SDS011;6107;49.078;8.578;2023-04-29T12:18:13;8.77;;;5.75;;
12088;SDS011;6107;49.078;8.578;2023-04-29T12:20:40;8.93;;;5.13;;
12088;SDS011;6107;49.078;8.578;2023-04-29T12:23:13;8.35;;;5.78;;
12088;SDS011;6107;49.078;8.578;2023-04-29T12:25:40;11.97;;;6.27;;
12088;SDS011;6107;49.078;8.578;2023-04-29T12:28:12;9.30;;;5.47;;
12088;SDS011;6107;49.078;8.578;2023-04-29T12:30:38;8.10;;;5.70;;
12088;SDS011;6107;49.078;8.578;2023-04-29T12:33:04;9.15;;;6.05;;
12088;SDS011;6107;49.078;8.578;2023-04-29T12:35:35;10.90;;;6.28;;
12088;SDS011;6107;49.078;8.578;2023-04-29T12:38:01;8.15;;;6.20;;
12088;SDS011;6107;49.078;8.578;2023-04-29T12:40:27;11.30;;;6.53;;
12088;SDS011;6107;49.078;8.578;2023-04-29T12:42:52;9.00;;;6.10;;
12088;SDS011;6107;49.078;8.578;2023-04-29T12:45:28;10.55;;;6.90;;
12088;SDS011;6107;49.078;8.578;2023-04-29T12:47:55;10.70;;;7.07;;
12088;SDS011;6107;49.078;8.578;2023-04-29T12:50:29;10.10;;;6.43;;
12088;SDS011;6107;49.078;8.578;2023-04-29T12:52:56;9.95;;;6.20;;
12088;SDS011;6107;49.078;8.578;2023-04-29T12:55:22;18.13;;;7.28;;
12088;SDS011;6107;49.078;8.578;2023-04-29T12:57:48;16.20;;;6.40;;
12088;SDS011;6107;49.078;8.578;2023-04-29T13:00:14;14.10;;;6.57;;
12088;SDS011;6107;49.078;8.578;2023-04-29T13:02:40;16.38;;;6.50;;
12088;SDS011;6107;49.078;8.578;2023-04-29T13:05:06;7.93;;;5.25;;
12088;SDS011;6107;49.078;8.578;2023-04-29T13:07:31;8.73;;;5.97;;
12088;SDS011;6107;49.078;8.578;2023-04-29T13:09:57;8.18;;;5.47;;
12088;SDS011;6107;49.078;8.578;2023-04-29T13:12:22;7.03;;;5.35;;
12088;SDS011;6107;49.078;8.578;2023-04-29T13:14:48;9.57;;;5.65;;
12088;SDS011;6107;49.078;8.578;2023-04-29T13:17:13;7.85;;;6.18;;
12088;SDS011;6107;49.078;8.578;2023-04-29T13:19:39;13.07;;;5.93;;
12088;SDS011;6107;49.078;8.578;2023-04-29T13:22:04;11.18;;;6.28;;
12088;SDS011;6107;49.078;8.578;2023-04-29T13:24:30;11.80;;;6.30;;
12088;SDS011;6107;49.078;8.578;2023-04-29T13:26:57;6.78;;;5.07;;
12088;SDS011;6107;49.078;8.578;2023-04-29T13:29:22;8.95;;;5.93;;
12088;SDS011;6107;49.078;8.578;2023-04-29T13:31:48;7.57;;;6.18;;
12088;SDS011;6107;49.078;8.578;2023-04-29T13:34:13;10.23;;;5.55;;
12088;SDS011;6107;49.078;8.578;2023-04-29T13:36:39;10.43;;;5.90;;
12088;SDS011;6107;49.078;8.578;2023-04-29T13:39:04;9.20;;;5.72;;
12088;SDS011;6107;49.078;8.578;2023-04-29T13:41:30;8.75;;;6.10;;
12088;SDS011;6107;49.078;8.578;2023-04-29T13:43:56;24.10;;;6.15;;
12088;SDS011;6107;49.078;8.578;2023-04-29T13:46:21;7.55;;;5.30;;
12088;SDS011;6107;49.078;8.578;2023-04-29T13:48:47;10.18;;;6.13;;
12088;SDS011;6107;49.078;8.578;2023-04-29T13:51:12;9.77;;;5.97;;
12088;SDS011;6107;49.078;8.578;2023-04-29T13:53:38;8.13;;;5.15;;
12088;SDS011;6107;49.078;8.578;2023-04-29T13:56:03;6.65;;;4.78;;
12088;SDS011;6107;49.078;8.578;2023-04-29T13:58:29;7.05;;;4.88;;
12088;SDS011;6107;49.078;8.578;2023-04-29T14:00:55;9.02;;;5.28;;
12088;SDS011;6107;49.078;8.578;2023-04-29T14:03:20;9.88;;;5.60;;
12088;SDS011;6107;49.078;8.578;2023-04-29T14:05:46;7.43;;;4.93;;
12088;SDS011;6107;49.078;8.578;2023-04-29T14:08:12;6.22;;;4.40;;
12088;SDS011;6107;49.078;8.578;2023-04-29T14:10:38;6.30;;;4.25;;
12088;SDS011;6107;49.078;8.578;2023-04-29T14:13:03;5.28;;;4.07;;
12088;SDS011;6107;49.078;8.578;2023-04-29T14:15:29;4.78;;;3.47;;
12088;SDS011;6107;49.078;8.578;2023-04-29T14:17:54;5.35;;;3.90;;
12088;SDS011;6107;49.078;8.578;2023-04-29T14:20:20;5.53;;;4.28;;
12088;SDS011;6107;49.078;8.578;2023-04-29T14:22:46;6.35;;;4.45;;
12088;SDS011;6107;49.078;8.578;2023-04-29T14:25:11;5.85;;;4.80;;
12088;SDS011;6107;49.078;8.578;2023-04-29T14:27:37;10.48;;;4.85;;
12088;SDS011;6107;49.078;8.578;2023-04-29T14:30:03;5.78;;;4.10;;
12088;SDS011;6107;49.078;8.578;2023-04-29T14:32:29;5.80;;;3.88;;
12088;SDS011;6107;49.078;8.578;2023-04-29T14:34:54;5.05;;;3.60;;
12088;SDS011;6107;49.078;8.578;2023-04-29T14:37:20;5.70;;;3.70;;
12088;SDS011;6107;49.078;8.578;2023-04-29T14:39:45;4.95;;;4.05;;
12088;SDS011;6107;49.078;8.578;2023-04-29T14:42:11;5.78;;;4.30;;
12088;SDS011;6107;49.078;8.578;2023-04-29T14:44:37;5.18;;;4.20;;
12088;SDS011;6107;49.078;8.578;2023-04-29T14:47:03;5.72;;;4.35;;
12088;SDS011;6107;49.078;8.578;2023-04-29T14:49:28;5.32;;;4.13;;
12088;SDS011;6107;49.078;8.578;2023-04-29T14:51:54;5.32;;;3.83;;
12088;SDS011;6107;49.078;8.578;2023-04-29T14:54:19;5.88;;;3.75;;
12088;SDS011;6107;49.078;8.578;2023-04-29T14:56:45;5.55;;;3.85;;
12088;SDS011;6107;49.078;8.578;2023-04-29T14:59:11;5.15;;;3.92;;
12088;SDS011;6107;49.078;8.578;2023-04-29T15:01:36;6.78;;;4.20;;
12088;SDS011;6107;49.078;8.578;2023-04-29T15:04:03;5.43;;;3.92;;
12088;SDS011;6107;49.078;8.578;2023-04-29T15:06:30;4.32;;;3.38;;
12088;SDS011;6107;49.078;8.578;2023-04-29T15:08:56;6.85;;;4.03;;
12088;SDS011;6107;49.078;8.578;2023-04-29T15:11:21;5.75;;;4.13;;
12088;SDS011;6107;49.078;8.578;2023-04-29T15:13:48;7.35;;;4.70;;
12088;SDS011;6107;49.078;8.578;2023-04-29T15:16:13;6.05;;;4.72;;
12088;SDS011;6107;49.078;8.578;2023-04-29T15:18:39;7.32;;;4.82;;
12088;SDS011;6107;49.078;8.578;2023-04-29T15:21:05;7.53;;;5.05;;
12088;SDS011;6107;49.078;8.578;2023-04-29T15:23:31;7.07;;;4.75;;
12088;SDS011;6107;49.078;8.578;2023-04-29T15:25:57;8.80;;;4.70;;